createdAt,value
2019-04-23T00:00:13.597Z,3.40
2019-04-23T00:01:23.195Z,3.50
2019-04-23T00:02:13.679Z,3.30
2019-04-23T00:03:17.005Z,3.00
2019-04-23T00:04:10.401Z,3.30
2019-04-23T00:05:21.081Z,3.30
2019-04-23T00:06:18.956Z,3.20
2019-04-23T00:07:26.551Z,3.80
2019-04-23T00:08:21.535Z,3.20
2019-04-23T00:11:15.377Z,4.30
2019-04-23T00:12:27.833Z,3.40
2019-04-23T00:13:12.816Z,3.20
2019-04-23T00:15:13.471Z,3.50
2019-04-23T00:16:21.800Z,3.20
2019-04-23T00:17:17.894Z,3.20
2019-04-23T00:18:19.028Z,3.30
2019-04-23T00:19:12.014Z,3.10
2019-04-23T00:20:14.670Z,4.00
2019-04-23T00:21:16.709Z,3.00
2019-04-23T00:22:13.350Z,3.70
2019-04-23T00:23:11.149Z,3.60
2019-04-23T00:24:19.600Z,3.30
2019-04-23T00:26:19.360Z,3.00
2019-04-23T00:27:23.921Z,3.20
2019-04-23T00:28:22.955Z,3.30
2019-04-23T00:30:09.503Z,2.90
2019-04-23T00:31:20.942Z,3.30
2019-04-23T00:32:15.377Z,3.30
2019-04-23T00:33:20.311Z,3.50
2019-04-23T00:34:15.786Z,3.20
2019-04-23T00:35:12.628Z,3.50
2019-04-23T00:36:23.012Z,3.60
2019-04-23T00:37:18.831Z,3.20
2019-04-23T00:38:18.216Z,3.70
2019-04-23T00:39:08.334Z,3.60
2019-04-23T00:40:11.262Z,3.40
2019-04-23T00:41:11.236Z,3.30
2019-04-23T00:42:15.118Z,3.00
2019-04-23T00:43:17.356Z,3.20
2019-04-23T00:44:15.028Z,3.30
2019-04-23T00:45:08.300Z,2.90
2019-04-23T00:46:15.498Z,3.60
2019-04-23T00:47:10.317Z,3.40
2019-04-23T00:48:25.322Z,3.80
2019-04-23T00:49:12.091Z,3.60
2019-04-23T00:50:20.652Z,3.40
2019-04-23T00:51:09.289Z,3.50
2019-04-23T00:52:18.702Z,3.70
2019-04-23T00:53:10.945Z,3.40
2019-04-23T00:54:14.424Z,3.40
2019-04-23T00:55:35.657Z,3.40
2019-04-23T00:57:16.378Z,3.30
2019-04-23T00:59:12.491Z,3.30
2019-04-23T01:01:11.201Z,3.30
2019-04-23T01:02:08.811Z,3.50
2019-04-23T01:03:14.007Z,3.30
2019-04-23T01:04:14.158Z,3.50
2019-04-23T01:06:18.211Z,3.40
2019-04-23T01:07:11.112Z,3.10
2019-04-23T01:08:13.275Z,3.30
2019-04-23T01:09:11.743Z,3.20
2019-04-23T01:10:16.704Z,3.10
2019-04-23T01:11:14.800Z,3.10
2019-04-23T01:12:14.181Z,3.50
2019-04-23T01:13:14.837Z,3.10
2019-04-23T01:14:16.326Z,3.40
2019-04-23T01:15:23.983Z,3.10
2019-04-23T01:16:11.607Z,3.20
2019-04-23T01:17:18.554Z,3.20
2019-04-23T01:18:18.684Z,3.30
2019-04-23T01:19:12.179Z,3.60
2019-04-23T01:20:10.911Z,2.90
2019-04-23T01:20:54.127Z,3.60
2019-04-23T01:21:49.849Z,3.10
2019-04-23T01:22:50.922Z,3.00
2019-04-23T01:23:57.864Z,3.20
2019-04-23T01:24:52.958Z,3.20
2019-04-23T01:26:00.288Z,3.20
2019-04-23T01:27:32.527Z,3.60
2019-04-23T01:28:13.905Z,3.30
2019-04-23T01:29:20.174Z,3.20
2019-04-23T01:30:16.098Z,3.00
2019-04-23T01:31:29.329Z,4.40
2019-04-23T01:32:17.543Z,3.10
2019-04-23T01:33:25.081Z,3.60
2019-04-23T01:34:20.042Z,3.60
2019-04-23T01:36:21.409Z,3.00
2019-04-23T01:37:20.242Z,3.30
2019-04-23T01:38:21.802Z,3.20
2019-04-23T01:39:21.074Z,3.10
2019-04-23T01:40:19.085Z,2.90
2019-04-23T01:41:20.488Z,3.30
2019-04-23T01:42:22.725Z,3.30
2019-04-23T01:43:19.697Z,3.30
2019-04-23T01:44:14.169Z,3.40
2019-04-23T01:45:20.024Z,3.20
2019-04-23T01:46:16.417Z,3.10
2019-04-23T01:47:17.296Z,3.20
2019-04-23T01:48:16.085Z,3.70
2019-04-23T01:49:23.669Z,3.50
2019-04-23T01:51:15.060Z,2.80
2019-04-23T01:52:19.157Z,3.30
2019-04-23T01:53:24.661Z,3.40
2019-04-23T01:54:18.924Z,3.10
2019-04-23T01:55:21.369Z,3.10
2019-04-23T01:56:22.968Z,3.10
2019-04-23T01:57:17.668Z,3.20
2019-04-23T01:58:38.780Z,3.10
2019-04-23T01:59:21.219Z,3.70
2019-04-23T02:01:21.479Z,3.90
2019-04-23T02:02:18.995Z,4.50
2019-04-23T02:03:15.225Z,3.40
2019-04-23T02:04:22.931Z,3.30
2019-04-23T02:05:22.924Z,3.10
2019-04-23T02:07:27.622Z,3.00
2019-04-23T02:08:12.880Z,4.80
2019-04-23T02:09:17.275Z,3.10
2019-04-23T02:10:23.693Z,3.10
2019-04-23T02:11:13.156Z,3.30
2019-04-23T02:12:22.852Z,2.90
2019-04-23T02:13:16.632Z,3.70
2019-04-23T02:14:18.236Z,3.40
2019-04-23T02:15:21.639Z,2.90
2019-04-23T02:16:23.058Z,3.00
2019-04-23T02:17:18.927Z,3.40
2019-04-23T02:18:16.441Z,3.10
2019-04-23T02:19:16.799Z,3.00
2019-04-23T02:20:25.970Z,3.10
2019-04-23T02:21:15.014Z,3.30
2019-04-23T02:22:28.483Z,3.20
2019-04-23T02:23:19.925Z,3.20
2019-04-23T02:24:12.146Z,3.10
2019-04-23T02:25:25.137Z,3.30
2019-04-23T02:26:12.982Z,2.80
2019-04-23T02:27:20.409Z,3.30
2019-04-23T02:28:19.573Z,3.40
2019-04-23T02:29:28.695Z,3.20
2019-04-23T02:30:40.241Z,3.20
2019-04-23T02:31:35.390Z,3.10
2019-04-23T02:32:19.048Z,2.90
2019-04-23T02:34:33.450Z,2.80
2019-04-23T02:36:11.017Z,3.50
2019-04-23T02:39:26.519Z,3.20
2019-04-23T02:40:26.286Z,2.90
2019-04-23T02:42:49.912Z,3.30
2019-04-23T02:43:16.091Z,3.40
2019-04-23T02:44:36.012Z,2.90
2019-04-23T02:46:12.876Z,3.10
2019-04-23T02:47:23.590Z,3.00
2019-04-23T02:48:24.884Z,3.00
2019-04-23T02:49:31.491Z,3.10
2019-04-23T02:52:21.803Z,3.00
2019-04-23T02:53:42.662Z,3.10
2019-04-23T02:55:29.399Z,3.10
2019-04-23T02:56:30.586Z,2.90
2019-04-23T02:57:20.231Z,2.90
2019-04-23T02:58:26.366Z,2.90
2019-04-23T02:59:28.548Z,3.10
2019-04-23T03:02:43.600Z,3.30
2019-04-23T03:03:28.092Z,3.20
2019-04-23T03:04:26.544Z,2.80
2019-04-23T03:05:21.770Z,3.10
2019-04-23T03:06:20.837Z,3.20
2019-04-23T03:08:26.786Z,3.10
2019-04-23T03:09:32.879Z,3.10
2019-04-23T03:10:20.804Z,3.10
2019-04-23T03:12:32.414Z,3.00
2019-04-23T03:15:32.963Z,3.30
2019-04-23T03:16:34.800Z,3.00
2019-04-23T03:17:30.924Z,3.20
2019-04-23T03:19:29.641Z,3.10
2019-04-23T03:22:14.697Z,3.20
2019-04-23T03:23:34.895Z,3.00
2019-04-23T03:24:34.673Z,2.90
2019-04-23T03:26:40.726Z,3.50
2019-04-23T03:27:31.575Z,2.90
2019-04-23T03:28:26.886Z,3.00
2019-04-23T03:29:49.455Z,3.30
2019-04-23T03:30:27.147Z,3.20
2019-04-23T03:36:10.691Z,3.00
2019-04-23T03:37:33.870Z,2.80
2019-04-23T03:38:39.431Z,3.00
2019-04-23T03:39:18.795Z,3.00
2019-04-23T03:40:13.885Z,3.10
2019-04-23T03:41:29.970Z,3.00
2019-04-23T03:43:30.975Z,2.90
2019-04-23T03:44:22.388Z,3.10
2019-04-23T03:45:36.852Z,2.90
2019-04-23T03:47:24.783Z,3.00
2019-04-23T03:48:26.196Z,2.90
2019-04-23T03:49:19.517Z,2.90
2019-04-23T03:50:35.944Z,2.90
2019-04-23T03:51:28.632Z,3.00
2019-04-23T03:52:28.834Z,3.10
2019-04-23T03:54:34.250Z,3.10
2019-04-23T03:55:34.045Z,2.90
2019-04-23T04:03:48.200Z,2.90
2019-04-23T04:04:33.394Z,3.20
2019-04-23T04:05:32.173Z,3.10
2019-04-23T04:06:33.773Z,2.80
2019-04-23T04:07:28.459Z,3.20
2019-04-23T04:10:16.785Z,2.90
2019-04-23T04:11:21.875Z,3.30
2019-04-23T04:12:35.517Z,3.00
2019-04-23T04:15:50.446Z,3.40
2019-04-23T04:16:18.918Z,3.10
2019-04-23T04:17:19.786Z,2.90
2019-04-23T04:18:33.081Z,2.80
2019-04-23T04:20:33.135Z,2.80
2019-04-23T04:21:29.947Z,2.90
2019-04-23T04:22:28.484Z,2.80
2019-04-23T04:24:27.427Z,3.10
2019-04-23T04:25:26.988Z,2.70
2019-04-23T04:27:33.976Z,3.00
2019-04-23T04:29:30.305Z,2.70
2019-04-23T04:30:27.733Z,3.00
2019-04-23T04:31:24.489Z,3.00
2019-04-23T04:32:36.480Z,3.10
2019-04-23T04:34:43.855Z,2.70
2019-04-23T04:35:24.871Z,2.90
2019-04-23T04:38:36.988Z,2.90
2019-04-23T04:40:39.595Z,3.00
2019-04-23T04:42:14.625Z,3.40
2019-04-23T04:45:37.538Z,3.20
2019-04-23T04:48:23.070Z,3.10
2019-04-23T04:49:25.520Z,2.90
2019-04-23T04:50:22.220Z,3.00
2019-04-23T04:51:35.359Z,3.00
2019-04-23T04:52:34.949Z,3.30
2019-04-23T04:53:40.623Z,2.90
2019-04-23T04:54:21.284Z,2.90
2019-04-23T04:55:26.255Z,3.00
2019-04-23T04:56:30.322Z,3.50
2019-04-23T04:57:32.958Z,3.00
2019-04-23T04:58:44.087Z,3.00
2019-04-23T04:59:22.887Z,3.10
2019-04-23T05:02:27.983Z,3.10
2019-04-23T05:06:24.779Z,3.20
2019-04-23T05:07:27.907Z,3.00
2019-04-23T05:08:20.009Z,2.80
2019-04-23T05:09:19.499Z,2.90
2019-04-23T05:10:30.021Z,3.50
2019-04-23T05:11:26.420Z,2.80
2019-04-23T05:14:23.650Z,2.90
2019-04-23T05:16:19.641Z,3.10
2019-04-23T05:17:27.488Z,3.00
2019-04-23T05:20:23.985Z,3.10
2019-04-23T05:22:17.045Z,2.70
2019-04-23T05:23:19.340Z,3.30
2019-04-23T05:25:15.488Z,3.40
2019-04-23T05:26:17.390Z,3.10
2019-04-23T05:27:09.049Z,3.40
2019-04-23T05:28:36.639Z,3.40
2019-04-23T05:29:11.504Z,3.10
2019-04-23T05:30:15.457Z,3.10
2019-04-23T05:32:12.048Z,3.30
2019-04-23T05:33:18.389Z,3.10
2019-04-23T05:34:27.317Z,3.10
2019-04-23T05:35:27.822Z,3.30
2019-04-23T05:37:28.260Z,2.90
2019-04-23T05:38:31.453Z,2.90
2019-04-23T05:39:21.080Z,3.20
2019-04-23T05:40:25.450Z,2.90
2019-04-23T05:41:29.881Z,3.50
2019-04-23T05:42:19.897Z,3.10
2019-04-23T05:43:15.824Z,3.30
2019-04-23T05:45:16.386Z,3.20
2019-04-23T05:46:22.229Z,3.30
2019-04-23T05:47:25.601Z,3.60
2019-04-23T05:48:17.494Z,3.30
2019-04-23T05:50:17.449Z,3.30
2019-04-23T05:51:21.342Z,3.10
2019-04-23T05:52:16.108Z,3.40
2019-04-23T05:53:18.621Z,3.40
2019-04-23T05:55:14.150Z,3.20
2019-04-23T05:56:15.593Z,3.50
2019-04-23T05:57:28.481Z,3.20
2019-04-23T05:58:26.677Z,3.10
2019-04-23T06:00:21.328Z,3.00
2019-04-23T06:01:33.613Z,3.30
2019-04-23T06:02:19.786Z,3.20
2019-04-23T06:03:15.955Z,4.70
2019-04-23T06:05:19.730Z,2.90
2019-04-23T06:06:20.248Z,3.40
2019-04-23T06:07:28.935Z,3.20
2019-04-23T06:08:17.780Z,3.60
2019-04-23T06:10:14.580Z,6.00
2019-04-23T06:11:18.570Z,6.20
2019-04-23T06:13:17.048Z,3.30
2019-04-23T06:15:11.112Z,3.10
2019-04-23T06:16:19.838Z,3.10
2019-04-23T06:17:15.182Z,3.40
2019-04-23T06:18:16.892Z,3.60
2019-04-23T06:20:15.335Z,3.30
2019-04-23T06:21:20.374Z,3.50
2019-04-23T06:23:26.944Z,3.00
2019-04-23T06:24:24.250Z,4.00
2019-04-23T06:25:25.237Z,3.40
2019-04-23T06:26:24.302Z,3.60
2019-04-23T06:28:14.638Z,4.10
2019-04-23T06:30:23.479Z,3.60
2019-04-23T06:31:19.901Z,4.00
2019-04-23T06:32:22.249Z,4.10
2019-04-23T06:34:17.086Z,4.00
2019-04-23T06:35:09.982Z,6.30
2019-04-23T06:36:18.976Z,3.30
2019-04-23T06:37:38.695Z,3.90
2019-04-23T06:38:39.238Z,3.40
2019-04-23T06:39:15.910Z,4.20
2019-04-23T06:40:14.039Z,6.60
2019-04-23T06:41:16.827Z,4.10
2019-04-23T06:42:14.474Z,4.10
2019-04-23T06:43:22.736Z,4.20
2019-04-23T06:44:19.034Z,4.30
2019-04-23T06:45:08.094Z,4.20
2019-04-23T06:46:12.793Z,3.80
2019-04-23T06:47:16.735Z,3.70
2019-04-23T06:48:15.451Z,3.90
2019-04-23T06:49:22.015Z,3.40
2019-04-23T06:50:27.104Z,4.30
2019-04-23T06:51:21.703Z,6.10
2019-04-23T06:53:04.185Z,5.20
2019-04-23T06:54:18.500Z,4.20
2019-04-23T06:55:18.458Z,3.80
2019-04-23T06:56:22.383Z,5.10
2019-04-23T06:58:20.817Z,3.50
2019-04-23T06:59:17.448Z,5.30
2019-04-23T07:00:13.301Z,4.00
2019-04-23T07:01:09.667Z,4.40
2019-04-23T07:02:25.886Z,5.10
2019-04-23T07:03:14.822Z,7.20
2019-04-23T07:04:18.049Z,4.10
2019-04-23T07:05:15.969Z,3.60
2019-04-23T07:08:30.694Z,4.00
2019-04-23T07:10:03.576Z,6.80
2019-04-23T07:12:17.552Z,3.70
2019-04-23T07:13:10.862Z,5.10
2019-04-23T07:14:02.654Z,5.90
2019-04-23T07:15:30.844Z,4.60
2019-04-23T07:17:08.437Z,5.90
2019-04-23T07:18:07.627Z,5.90
2019-04-23T07:19:19.803Z,3.80
2019-04-23T07:20:15.357Z,5.20
2019-04-23T07:21:17.750Z,9.20
2019-04-23T07:23:21.012Z,4.20
2019-04-23T07:24:15.139Z,4.60
2019-04-23T07:25:15.668Z,5.80
2019-04-23T07:26:25.778Z,8.70
2019-04-23T07:27:13.462Z,8.20
2019-04-23T07:28:21.317Z,5.20
2019-04-23T07:29:15.896Z,5.90
2019-04-23T07:30:17.152Z,5.50
2019-04-23T07:31:21.668Z,5.60
2019-04-23T07:32:11.007Z,4.20
2019-04-23T07:33:11.935Z,6.90
2019-04-23T07:34:26.714Z,6.80
2019-04-23T07:35:11.630Z,6.90
2019-04-23T07:36:18.973Z,5.90
2019-04-23T07:37:12.595Z,5.50
2019-04-23T07:38:21.946Z,6.30
2019-04-23T07:39:15.569Z,7.10
2019-04-23T07:41:24.987Z,5.70
2019-04-23T07:44:20.382Z,6.20
2019-04-23T07:45:17.104Z,7.90
2019-04-23T07:46:18.563Z,5.90
2019-04-23T07:48:19.578Z,7.00
2019-04-23T07:49:18.120Z,5.80
2019-04-23T07:50:23.422Z,7.40
2019-04-23T07:51:17.799Z,6.00
2019-04-23T07:52:20.106Z,5.60
2019-04-23T07:54:16.103Z,4.90
2019-04-23T07:55:19.436Z,4.00
2019-04-23T07:56:13.082Z,7.60
2019-04-23T07:57:18.814Z,5.10
2019-04-23T07:58:19.571Z,4.80
2019-04-23T07:59:19.236Z,4.40
2019-04-23T08:00:26.408Z,5.10
2019-04-23T08:01:09.649Z,5.40
2019-04-23T08:04:18.229Z,7.50
2019-04-23T08:05:27.465Z,4.90
2019-04-23T08:06:13.226Z,4.70
2019-04-23T08:07:14.738Z,4.90
2019-04-23T08:08:15.145Z,5.10
2019-04-23T08:09:17.436Z,5.20
2019-04-23T08:10:14.090Z,5.80
2019-04-23T08:12:19.406Z,4.80
2019-04-23T08:13:16.437Z,4.50
2019-04-23T08:14:08.170Z,4.90
2019-04-23T08:15:14.609Z,5.60
2019-04-23T08:16:25.859Z,4.60
2019-04-23T08:17:10.741Z,4.60
2019-04-23T08:18:23.339Z,7.00
2019-04-23T08:19:18.218Z,4.40
2019-04-23T08:20:11.160Z,3.90
2019-04-23T08:21:14.680Z,6.00
2019-04-23T08:23:17.705Z,4.00
2019-04-23T08:24:12.290Z,4.10
2019-04-23T08:25:12.965Z,4.20
2019-04-23T08:26:24.196Z,6.00
2019-04-23T08:27:13.093Z,5.70
2019-04-23T08:28:29.429Z,6.00
2019-04-23T08:29:15.411Z,4.60
2019-04-23T08:30:09.415Z,6.80
2019-04-23T08:31:15.989Z,4.00
2019-04-23T08:33:10.934Z,4.80
2019-04-23T08:35:30.088Z,6.00
2019-04-23T08:37:24.707Z,3.30
2019-04-23T08:38:21.062Z,4.50
2019-04-23T08:39:15.788Z,6.10
2019-04-23T08:40:13.317Z,4.60
2019-04-23T08:43:19.391Z,4.40
2019-04-23T08:44:21.679Z,4.50
2019-04-23T08:46:13.452Z,4.00
2019-04-23T08:48:27.910Z,4.50
2019-04-23T08:50:18.855Z,4.30
2019-04-23T08:51:21.065Z,3.80
2019-04-23T08:52:11.723Z,3.90
2019-04-23T08:54:13.342Z,3.60
2019-04-23T08:55:15.283Z,4.80
2019-04-23T08:56:12.397Z,4.30
2019-04-23T08:57:14.378Z,3.70
2019-04-23T08:58:13.548Z,3.40
2019-04-23T08:59:18.175Z,4.50
2019-04-23T09:00:17.739Z,3.40
2019-04-23T09:01:10.713Z,5.10
2019-04-23T09:02:28.987Z,3.20
2019-04-23T09:03:23.553Z,4.90
2019-04-23T09:04:21.539Z,5.90
2019-04-23T09:05:31.625Z,4.40
2019-04-23T09:06:13.260Z,3.40
2019-04-23T09:07:17.861Z,3.20
2019-04-23T09:08:17.235Z,3.70
2019-04-23T09:09:18.092Z,3.70
2019-04-23T09:10:19.714Z,4.20
2019-04-23T09:11:30.378Z,4.00
2019-04-23T09:12:18.427Z,3.90
2019-04-23T09:14:22.898Z,3.60
2019-04-23T09:15:15.461Z,4.10
2019-04-23T09:16:09.006Z,4.40
2019-04-23T09:18:16.016Z,8.50
2019-04-23T09:19:16.493Z,3.00
2019-04-23T09:21:17.715Z,3.30
2019-04-23T09:22:28.299Z,3.40
2019-04-23T09:23:13.288Z,4.20
2019-04-23T09:24:13.311Z,3.60
2019-04-23T09:25:20.161Z,6.40
2019-04-23T09:26:08.294Z,3.20
2019-04-23T09:28:23.870Z,3.60
2019-04-23T09:29:17.224Z,4.10
2019-04-23T09:30:16.785Z,3.00
2019-04-23T09:32:21.804Z,6.20
2019-04-23T09:33:13.938Z,4.50
2019-04-23T09:34:12.866Z,6.40
2019-04-23T09:35:20.224Z,5.70
2019-04-23T09:36:13.636Z,3.50
2019-04-23T09:37:19.463Z,4.80
2019-04-23T09:38:11.512Z,3.30
2019-04-23T09:39:12.939Z,3.30
2019-04-23T09:42:16.193Z,5.40
2019-04-23T09:43:29.579Z,5.90
2019-04-23T09:44:27.398Z,5.00
2019-04-23T09:45:13.002Z,5.00
2019-04-23T09:46:17.667Z,5.80
2019-04-23T09:47:14.304Z,5.40
2019-04-23T09:48:06.225Z,6.40
2019-04-23T09:49:18.752Z,4.60
2019-04-23T09:50:17.196Z,7.40
2019-04-23T09:52:14.668Z,5.30
2019-04-23T09:53:17.742Z,5.00
2019-04-23T09:55:24.482Z,4.30
2019-04-23T09:56:05.013Z,5.50
2019-04-23T09:57:10.805Z,4.90
2019-04-23T09:59:17.563Z,6.50
2019-04-23T10:00:16.906Z,4.90
2019-04-23T10:01:19.963Z,4.30
2019-04-23T10:02:06.803Z,4.80
2019-04-23T10:03:00.744Z,4.80
2019-04-23T10:03:56.853Z,3.90
2019-04-23T10:04:59.827Z,4.90
2019-04-23T10:05:54.819Z,4.00
2019-04-23T10:06:58.780Z,3.60
2019-04-23T10:07:54.326Z,3.60
2019-04-23T10:08:52.232Z,3.80
2019-04-23T10:09:47.707Z,3.90
2019-04-23T10:10:44.984Z,5.90
2019-04-23T10:11:45.170Z,3.90
2019-04-23T10:12:44.205Z,3.90
2019-04-23T10:13:45.031Z,3.40
2019-04-23T10:14:56.698Z,4.10
2019-04-23T10:15:47.991Z,4.10
2019-04-23T10:16:45.233Z,4.00
2019-04-23T10:17:44.520Z,5.10
2019-04-23T10:18:44.930Z,4.50
2019-04-23T10:19:44.699Z,3.30
2019-04-23T10:20:44.597Z,3.80
2019-04-23T10:21:43.899Z,4.50
2019-04-23T10:22:44.272Z,3.70
2019-04-23T10:23:45.225Z,4.10
2019-04-23T10:24:45.404Z,4.60
2019-04-23T10:25:43.891Z,4.10
2019-04-23T10:26:43.941Z,3.20
2019-04-23T10:27:45.242Z,3.40
2019-04-23T10:28:44.231Z,4.40
2019-04-23T10:29:43.797Z,3.10
2019-04-23T10:30:44.978Z,4.90
2019-04-23T10:31:43.969Z,3.70
2019-04-23T10:32:45.211Z,4.10
2019-04-23T10:33:44.082Z,3.40
2019-04-23T10:34:55.267Z,4.10
2019-04-23T10:35:53.132Z,4.30
2019-04-23T10:36:44.774Z,3.30
2019-04-23T10:37:50.936Z,4.40
2019-04-23T10:38:54.300Z,4.30
2019-04-23T10:39:49.264Z,3.40
2019-04-23T10:40:48.471Z,4.50
2019-04-23T10:41:46.389Z,4.50
2019-04-23T10:42:46.106Z,3.50
2019-04-23T10:43:46.045Z,4.20
2019-04-23T10:44:45.889Z,3.20
2019-04-23T10:46:03.866Z,5.80
2019-04-23T10:47:12.192Z,3.10
2019-04-23T10:48:21.740Z,4.50
2019-04-23T10:50:24.762Z,3.80
2019-04-23T10:51:18.340Z,4.90
2019-04-23T10:52:20.239Z,3.90
2019-04-23T10:53:26.837Z,5.80
2019-04-23T10:54:23.939Z,5.30
2019-04-23T10:55:21.433Z,3.50
2019-04-23T10:56:18.508Z,3.50
2019-04-23T10:57:14.783Z,4.00
2019-04-23T10:58:17.327Z,4.50
2019-04-23T10:59:12.017Z,3.70
2019-04-23T11:00:11.734Z,3.90
2019-04-23T11:01:16.956Z,3.70
2019-04-23T11:03:32.085Z,3.80
2019-04-23T11:05:22.581Z,4.70
2019-04-23T11:06:21.495Z,4.40
2019-04-23T11:07:26.238Z,3.80
2019-04-23T11:08:10.831Z,3.70
2019-04-23T11:09:32.879Z,3.60
2019-04-23T11:10:21.271Z,4.00
2019-04-23T11:11:14.566Z,3.60
2019-04-23T11:12:28.833Z,3.30
2019-04-23T11:13:19.421Z,3.50
2019-04-23T11:14:18.222Z,4.10
2019-04-23T11:16:41.997Z,3.60
2019-04-23T11:17:17.792Z,4.30
2019-04-23T11:18:04.503Z,3.00
2019-04-23T11:19:19.251Z,3.40
2019-04-23T11:22:30.215Z,4.90
2019-04-23T11:23:04.625Z,3.20
2019-04-23T11:24:24.670Z,3.80
2019-04-23T11:25:20.474Z,5.20
2019-04-23T11:26:17.348Z,2.90
2019-04-23T11:27:14.670Z,9.50
2019-04-23T11:28:18.004Z,5.90
2019-04-23T11:29:19.631Z,4.50
2019-04-23T11:31:23.688Z,3.90
2019-04-23T11:33:14.789Z,7.00
2019-04-23T11:34:20.295Z,4.40
2019-04-23T11:39:05.579Z,6.10
2019-04-23T11:40:15.328Z,4.20
2019-04-23T11:41:19.257Z,5.00
2019-04-23T11:42:16.883Z,4.40
2019-04-23T11:43:14.800Z,2.80
2019-04-23T11:44:19.021Z,2.20
2019-04-23T11:45:14.699Z,2.70
2019-04-23T11:47:44.174Z,2.90
2019-04-23T11:49:26.660Z,3.60
2019-04-23T11:50:18.918Z,2.40
2019-04-23T11:52:17.891Z,1.80
2019-04-23T11:55:28.676Z,1.40
2019-04-23T11:56:24.107Z,2.30
2019-04-23T11:57:29.868Z,2.70
2019-04-23T11:58:30.303Z,1.40
2019-04-23T11:59:22.970Z,1.70
2019-04-23T12:00:14.565Z,2.30
2019-04-23T12:01:36.289Z,1.90
2019-04-23T12:02:17.965Z,3.10
2019-04-23T12:03:02.671Z,1.50
2019-04-23T12:04:19.268Z,1.40
2019-04-23T12:05:35.342Z,2.00
2019-04-23T12:06:25.288Z,2.10
2019-04-23T12:07:21.439Z,1.40
2019-04-23T12:08:18.160Z,1.70
2019-04-23T12:09:16.000Z,4.10
2019-04-23T12:10:22.252Z,1.50
2019-04-23T12:11:39.773Z,1.20
2019-04-23T12:12:17.334Z,1.50
2019-04-23T12:13:21.317Z,1.40
2019-04-23T12:14:21.881Z,1.20
2019-04-23T12:15:19.528Z,3.60
2019-04-23T12:16:21.936Z,1.10
2019-04-23T12:18:28.291Z,2.40
2019-04-23T12:20:13.556Z,1.30
2019-04-23T12:21:12.928Z,1.90
2019-04-23T12:22:18.077Z,1.20
2019-04-23T12:24:39.859Z,1.00
2019-04-23T12:25:18.085Z,1.30
2019-04-23T12:26:19.749Z,2.00
2019-04-23T12:27:13.710Z,1.10
2019-04-23T12:28:17.940Z,1.20
2019-04-23T12:29:18.575Z,1.30
2019-04-23T12:30:16.340Z,1.90
2019-04-23T12:31:20.966Z,1.20
2019-04-23T12:32:31.877Z,1.60
2019-04-23T12:33:20.329Z,1.10
2019-04-23T12:34:19.952Z,1.60
2019-04-23T12:35:16.770Z,1.00
2019-04-23T12:37:17.697Z,1.50
2019-04-23T12:39:21.957Z,1.00
2019-04-23T12:40:23.551Z,1.60
2019-04-23T12:41:17.477Z,1.20
2019-04-23T12:42:37.751Z,1.40
2019-04-23T12:44:31.508Z,1.20
2019-04-23T12:45:22.817Z,1.30
2019-04-23T12:46:13.121Z,1.10
2019-04-23T12:47:27.101Z,1.10
2019-04-23T12:48:20.419Z,1.70
2019-04-23T12:49:40.029Z,1.10
2019-04-23T12:50:37.930Z,1.70
2019-04-23T12:51:14.982Z,1.20
2019-04-23T12:52:17.115Z,1.30
2019-04-23T12:54:21.338Z,1.20
2019-04-23T12:56:08.893Z,1.10
2019-04-23T12:57:28.740Z,0.90
2019-04-23T12:58:18.741Z,2.10
2019-04-23T12:59:04.140Z,0.80
2019-04-23T13:00:17.334Z,1.10
2019-04-23T13:01:13.952Z,0.80
2019-04-23T13:02:15.977Z,1.40
2019-04-23T13:04:09.986Z,1.40
2019-04-23T13:05:10.278Z,1.40
2019-04-23T13:06:11.784Z,1.00
2019-04-23T13:07:17.496Z,0.80
2019-04-23T13:08:22.044Z,1.10
2019-04-23T13:09:21.743Z,1.10
2019-04-23T13:10:15.587Z,1.20
2019-04-23T13:11:13.985Z,0.90
2019-04-23T13:12:20.224Z,1.50
2019-04-23T13:13:17.259Z,1.50
2019-04-23T13:14:22.964Z,1.80
2019-04-23T13:15:14.463Z,1.10
2019-04-23T13:17:26.600Z,0.80
2019-04-23T13:18:15.440Z,1.40
2019-04-23T13:19:23.267Z,0.90
2019-04-23T13:21:22.047Z,1.20
2019-04-23T13:22:16.552Z,1.00
2019-04-23T13:24:11.433Z,0.90
2019-04-23T13:25:10.227Z,1.10
2019-04-23T13:26:18.464Z,0.80
2019-04-23T13:27:14.651Z,0.90
2019-04-23T13:29:23.802Z,1.00
2019-04-23T13:30:16.619Z,2.40
2019-04-23T13:32:09.379Z,1.20
2019-04-23T13:34:13.525Z,1.30
2019-04-23T13:36:17.722Z,1.20
2019-04-23T13:37:13.837Z,1.30
2019-04-23T13:38:19.563Z,1.70
2019-04-23T13:39:09.719Z,1.80
2019-04-23T13:40:09.362Z,0.80
2019-04-23T13:42:18.926Z,2.00
2019-04-23T13:43:19.586Z,1.00
2019-04-23T13:44:09.538Z,1.00
2019-04-23T13:45:31.051Z,2.00
2019-04-23T13:47:25.738Z,4.90
2019-04-23T13:49:11.437Z,0.90
2019-04-23T13:50:20.267Z,2.60
2019-04-23T13:51:16.137Z,1.10
2019-04-23T13:52:37.099Z,1.70
2019-04-23T13:53:22.264Z,0.90
2019-04-23T13:54:24.444Z,1.50
2019-04-23T13:56:11.503Z,2.30
2019-04-23T13:57:50.795Z,2.60
2019-04-23T13:59:16.524Z,2.20
2019-04-23T14:00:19.241Z,1.20
2019-04-23T14:02:17.100Z,2.00
2019-04-23T14:03:09.660Z,1.70
2019-04-23T14:04:16.216Z,1.10
2019-04-23T14:05:12.981Z,1.90
2019-04-23T14:06:20.807Z,0.90
2019-04-23T14:07:15.044Z,2.00
2019-04-23T14:08:20.461Z,1.30
2019-04-23T14:09:17.250Z,4.10
2019-04-23T14:11:20.988Z,1.00
2019-04-23T14:12:10.700Z,1.60
2019-04-23T14:13:28.449Z,3.10
2019-04-23T14:14:19.678Z,2.10
2019-04-23T14:15:12.598Z,2.10
2019-04-23T14:16:22.757Z,1.60
2019-04-23T14:17:26.933Z,1.20
2019-04-23T14:18:29.065Z,0.90
2019-04-23T14:19:04.037Z,2.40
2019-04-23T14:20:13.831Z,1.20
2019-04-23T14:22:34.041Z,1.40
2019-04-23T14:24:17.963Z,1.20
2019-04-23T14:25:14.338Z,1.70
2019-04-23T14:27:14.904Z,1.30
2019-04-23T14:28:22.177Z,1.20
2019-04-23T14:29:04.443Z,1.60
2019-04-23T14:30:25.470Z,1.60
2019-04-23T14:31:11.058Z,1.40
2019-04-23T14:32:15.985Z,1.40
2019-04-23T14:36:17.330Z,1.10
2019-04-23T14:37:11.839Z,1.20
2019-04-23T14:39:10.872Z,0.70
2019-04-23T14:40:15.286Z,0.80
2019-04-23T14:41:16.483Z,2.40
2019-04-23T14:42:20.590Z,0.80
2019-04-23T14:43:14.992Z,1.10
2019-04-23T14:44:12.818Z,0.70
2019-04-23T14:45:25.405Z,1.50
2019-04-23T14:47:16.930Z,1.40
2019-04-23T14:49:27.381Z,1.60
2019-04-23T14:50:28.234Z,1.60
2019-04-23T14:51:16.744Z,0.50
2019-04-23T14:52:12.075Z,0.60
2019-04-23T14:53:26.596Z,0.50
2019-04-23T14:54:15.705Z,0.90
2019-04-23T14:55:43.932Z,4.00
2019-04-23T14:56:16.111Z,0.40
2019-04-23T14:57:22.932Z,0.60
2019-04-23T14:58:18.554Z,0.60
2019-04-23T14:59:07.783Z,1.70
2019-04-23T15:01:22.388Z,0.60
2019-04-23T15:02:14.526Z,0.60
2019-04-23T15:03:25.274Z,0.60
2019-04-23T15:04:02.056Z,0.70
2019-04-23T15:05:13.405Z,1.00
2019-04-23T15:07:20.835Z,0.60
2019-04-23T15:08:15.558Z,0.40
2019-04-23T15:09:22.594Z,0.90
2019-04-23T15:10:18.610Z,1.20
2019-04-23T15:11:22.949Z,0.70
2019-04-23T15:12:16.174Z,0.50
2019-04-23T15:14:09.563Z,0.50
2019-04-23T15:16:20.813Z,0.60
2019-04-23T15:17:13.012Z,0.70
2019-04-23T15:18:21.248Z,0.50
2019-04-23T15:19:23.625Z,0.60
2019-04-23T15:20:10.631Z,0.70
2019-04-23T15:21:27.943Z,0.50
2019-04-23T15:23:25.443Z,0.90
2019-04-23T15:24:14.153Z,0.80
2019-04-23T15:25:25.713Z,0.80
2019-04-23T15:27:08.535Z,1.20
2019-04-23T15:27:58.619Z,1.50
2019-04-23T15:28:06.800Z,0.90
2019-04-23T15:28:51.178Z,0.90
2019-04-23T15:29:58.200Z,1.40
2019-04-23T15:32:14.979Z,0.50
2019-04-23T15:33:23.167Z,0.70
2019-04-23T15:37:19.128Z,0.80
2019-04-23T15:41:15.294Z,1.50
2019-04-23T15:42:20.108Z,0.50
2019-04-23T15:43:10.601Z,0.70
2019-04-23T15:45:08.119Z,1.40
2019-04-23T15:46:11.678Z,0.40
2019-04-23T15:47:12.122Z,0.80
2019-04-23T15:48:14.121Z,0.60
2019-04-23T15:50:14.633Z,1.30
2019-04-23T15:51:20.423Z,1.00
2019-04-23T15:52:29.841Z,1.20
2019-04-23T15:53:04.894Z,1.70
2019-04-23T15:54:14.430Z,1.80
2019-04-23T15:55:14.802Z,0.80
2019-04-23T15:56:18.801Z,4.00
2019-04-23T15:57:07.331Z,0.90
2019-04-23T16:00:05.426Z,2.20
2019-04-23T16:01:18.141Z,2.60
2019-04-23T16:01:43.701Z,2.00
2019-04-23T16:02:40.112Z,1.70
2019-04-23T16:03:43.303Z,1.80
2019-04-23T16:04:40.098Z,0.60
2019-04-23T16:05:41.264Z,1.90
2019-04-23T16:06:41.546Z,1.70
2019-04-23T16:07:54.705Z,0.80
2019-04-23T16:11:21.547Z,0.70
2019-04-23T16:11:59.015Z,1.00
2019-04-23T16:13:13.310Z,1.70
2019-04-23T16:15:11.443Z,1.20
2019-04-23T16:16:22.928Z,1.90
2019-04-23T16:17:18.725Z,1.40
2019-04-23T16:18:25.964Z,1.30
2019-04-23T16:19:13.712Z,1.50
2019-04-23T16:20:15.072Z,1.70
2019-04-23T16:21:26.852Z,1.40
2019-04-23T16:22:11.081Z,1.40
2019-04-23T16:23:04.704Z,6.50
2019-04-23T16:24:15.872Z,4.20
2019-04-23T16:25:17.132Z,12.60
2019-04-23T16:26:17.657Z,40.00
2019-04-23T16:27:10.743Z,17.40
2019-04-23T16:28:11.556Z,127.40
2019-04-23T16:31:23.521Z,511.30
2019-04-23T16:32:14.654Z,426.50
2019-04-23T16:34:17.699Z,385.20
2019-04-23T16:35:22.848Z,231.10